Time;durP1;ratioP1;P1;durP2;ratioP2;P2;SDS_P1;SDS_P2;PMS_P1;PMS_P2;Temp;Humidity;BMP_temperature;BMP_pressure;BME280_temperature;BME280_humidity;BME280_pressure;Samples;Min_cycle;Max_cycle;Signal;HPM_P1;HPM_P2
2023/01/26 00:00:21;;;;;;;;;62.00;48.25;;;;;;;;4911327;28;46272;-75
2023/01/26 00:02:47;;;;;;;;;61.00;47.75;;;;;;;;4890155;29;45431;-75
2023/01/26 00:05:12;;;;;;;;;62.00;48.75;;;;;;;;4882180;29;45263;-75
2023/01/26 00:07:41;;;;;;;;;63.25;50.25;;;;;;;;4881900;29;45347;-75
2023/01/26 00:10:06;;;;;;;;;68.50;51.75;;;;;;;;4885451;28;45636;-75
2023/01/26 00:12:32;;;;;;;;;51.75;40.00;;;;;;;;4908689;28;45397;-75
2023/01/26 00:14:57;;;;;;;;;70.25;52.75;;;;;;;;4910560;28;45452;-74
2023/01/26 00:17:25;;;;;;;;;62.50;47.50;;;;;;;;4908699;28;45276;-75
2023/01/26 00:19:54;;;;;;;;;61.50;49.00;;;;;;;;4909130;28;47134;-74
2023/01/26 00:22:19;;;;;;;;;60.00;47.25;;;;;;;;4907943;28;45813;-75
2023/01/26 00:24:44;;;;;;;;;57.75;46.00;;;;;;;;4906527;28;45490;-75
2023/01/26 00:27:10;;;;;;;;;62.50;49.50;;;;;;;;4909088;28;45420;-75
2023/01/26 00:29:35;;;;;;;;;66.00;52.50;;;;;;;;4909254;28;45617;-74
2023/01/26 00:32:00;;;;;;;;;62.00;46.75;;;;;;;;4906127;28;45314;-75
2023/01/26 00:34:25;;;;;;;;;69.50;51.00;;;;;;;;4907872;28;45490;-75
2023/01/26 00:36:51;;;;;;;;;60.25;46.25;;;;;;;;4909637;28;45533;-75
2023/01/26 00:39:16;;;;;;;;;67.00;50.00;;;;;;;;4915490;28;46872;-75
2023/01/26 00:44:25;;;;;;;;;62.00;50.75;;;;;;;;4919045;28;45341;-75
2023/01/26 00:46:50;;;;;;;;;66.75;51.25;;;;;;;;4917510;28;45371;-75
2023/01/26 00:49:15;;;;;;;;;62.00;48.00;;;;;;;;4919180;28;47197;-75
2023/01/26 00:51:41;;;;;;;;;62.75;50.25;;;;;;;;4918947;28;45278;-75
2023/01/26 00:54:06;;;;;;;;;69.25;51.50;;;;;;;;4919329;28;45380;-75
2023/01/26 00:56:31;;;;;;;;;63.00;50.50;;;;;;;;4919415;28;45496;-75
2023/01/26 00:58:56;;;;;;;;;62.00;47.25;;;;;;;;4919273;28;45582;-75
2023/01/26 01:01:21;;;;;;;;;65.75;50.25;;;;;;;;4919149;28;45314;-75
2023/01/26 01:03:49;;;;;;;;;63.75;51.00;;;;;;;;4919039;28;45298;-75
2023/01/26 01:06:14;;;;;;;;;72.25;51.50;;;;;;;;4919240;28;45451;-75
2023/01/26 01:08:39;;;;;;;;;62.50;45.25;;;;;;;;4919419;28;47257;-74
2023/01/26 01:11:06;;;;;;;;;61.75;51.00;;;;;;;;4918321;28;45410;-75
2023/01/26 01:13:31;;;;;;;;;73.75;51.00;;;;;;;;4918743;28;45354;-75
2023/01/26 01:15:56;;;;;;;;;61.75;49.75;;;;;;;;4918957;28;45407;-74
2023/01/26 01:18:22;;;;;;;;;70.00;50.00;;;;;;;;4918840;28;45260;-75
2023/01/26 01:20:47;;;;;;;;;68.50;53.25;;;;;;;;4918995;28;45425;-74
2023/01/26 01:23:12;;;;;;;;;67.00;50.75;;;;;;;;4919128;28;45279;-75
2023/01/26 01:25:37;;;;;;;;;57.25;46.25;;;;;;;;4918701;28;45531;-75
2023/01/26 01:28:03;;;;;;;;;62.75;50.50;;;;;;;;4918506;28;46037;-75
2023/01/26 01:30:28;;;;;;;;;66.50;51.50;;;;;;;;4918158;28;45179;-75
2023/01/26 01:32:53;;;;;;;;;58.00;49.25;;;;;;;;4918324;28;45268;-75
2023/01/26 01:35:18;;;;;;;;;71.25;54.25;;;;;;;;4918512;28;45279;-75
2023/01/26 01:37:43;;;;;;;;;68.00;54.00;;;;;;;;4918193;28;45365;-74
2023/01/26 01:40:12;;;;;;;;;64.25;49.25;;;;;;;;4918179;28;45366;-75
2023/01/26 01:42:37;;;;;;;;;64.00;48.75;;;;;;;;4918388;28;45346;-75
2023/01/26 01:45:21;;;;;;;;;63.50;48.00;;;;;;;;4918015;28;45414;-75
2023/01/26 01:47:47;;;;;;;;;60.50;49.50;;;;;;;;4918213;28;46128;-75
2023/01/26 01:50:14;;;;;;;;;69.75;54.00;;;;;;;;4918102;28;45378;-75
2023/01/26 01:52:39;;;;;;;;;65.50;49.50;;;;;;;;4918432;28;45715;-75
2023/01/26 01:55:07;;;;;;;;;66.75;52.25;;;;;;;;4918167;28;45517;-75
2023/01/26 01:57:43;;;;;;;;;63.75;49.50;;;;;;;;4918336;28;47346;-75
2023/01/26 02:00:10;;;;;;;;;60.25;49.00;;;;;;;;4918397;28;45232;-75
2023/01/26 02:02:36;;;;;;;;;64.25;51.50;;;;;;;;4917998;28;45233;-74
2023/01/26 02:05:12;;;;;;;;;58.50;45.50;;;;;;;;4918383;28;45320;-75
2023/01/26 02:07:38;;;;;;;;;62.50;49.25;;;;;;;;4918151;28;45605;-75
2023/01/26 02:10:18;;;;;;;;;66.25;51.50;;;;;;;;4918518;28;45430;-75
2023/01/26 02:12:46;;;;;;;;;64.75;45.25;;;;;;;;4918403;28;45287;-74
2023/01/26 02:15:13;;;;;;;;;58.25;45.75;;;;;;;;4918289;28;45556;-75
2023/01/26 02:17:38;;;;;;;;;62.25;44.00;;;;;;;;4918187;28;45807;-74
2023/01/26 02:20:09;;;;;;;;;64.75;49.00;;;;;;;;4918118;28;45359;-74
2023/01/26 02:22:49;;;;;;;;;68.00;50.75;;;;;;;;4917096;28;45256;-74
2023/01/26 02:25:23;;;;;;;;;58.50;45.75;;;;;;;;4917994;28;45384;-74
2023/01/26 02:27:49;;;;;;;;;60.25;46.75;;;;;;;;4918149;28;46137;-74
2023/01/26 02:30:15;;;;;;;;;60.75;46.75;;;;;;;;4917868;28;45478;-74
2023/01/26 02:32:40;;;;;;;;;66.00;50.75;;;;;;;;4919041;28;45354;-73
2023/01/26 02:35:05;;;;;;;;;57.75;45.00;;;;;;;;4916440;28;45388;-74
2023/01/26 02:37:30;;;;;;;;;62.25;47.50;;;;;;;;4917721;28;46162;-73
2023/01/26 02:39:59;;;;;;;;;57.00;44.75;;;;;;;;4917770;28;45564;-74
2023/01/26 02:42:43;;;;;;;;;56.75;46.50;;;;;;;;4916217;28;45350;-75
2023/01/26 02:45:10;;;;;;;;;59.25;47.25;;;;;;;;4916602;28;45471;-74
2023/01/26 02:47:35;;;;;;;;;56.75;45.75;;;;;;;;4917464;28;45298;-74
2023/01/26 02:50:00;;;;;;;;;61.50;49.25;;;;;;;;4917521;28;45381;-74
2023/01/26 02:52:27;;;;;;;;;58.25;46.50;;;;;;;;4919237;28;45350;-74
2023/01/26 02:57:37;;;;;;;;;69.75;50.50;;;;;;;;4920644;28;45772;-74
2023/01/26 03:00:03;;;;;;;;;61.75;48.75;;;;;;;;4920955;28;45462;-74
2023/01/26 03:02:28;;;;;;;;;54.75;42.00;;;;;;;;4921058;28;45449;-74
2023/01/26 03:04:54;;;;;;;;;55.75;43.75;;;;;;;;4919738;28;45333;-74
2023/01/26 03:07:19;;;;;;;;;62.00;45.50;;;;;;;;4921028;28;45464;-74
2023/01/26 03:09:44;;;;;;;;;58.25;44.00;;;;;;;;4920667;28;45396;-74
2023/01/26 03:12:09;;;;;;;;;50.75;42.50;;;;;;;;4920823;28;45334;-74
2023/01/26 03:14:35;;;;;;;;;61.25;49.25;;;;;;;;4920878;28;45341;-75
2023/01/26 03:17:00;;;;;;;;;50.00;41.50;;;;;;;;4920196;28;46343;-74
2023/01/26 03:27:44;;;;;;;;;54.50;43.25;;;;;;;;4920270;28;45290;-75
2023/01/26 03:30:10;;;;;;;;;66.00;51.25;;;;;;;;4920548;28;45244;-75
2023/01/26 03:32:36;;;;;;;;;52.00;40.00;;;;;;;;4920372;28;45388;-75
2023/01/26 03:35:01;;;;;;;;;59.75;46.75;;;;;;;;4920372;28;45251;-75
2023/01/26 03:37:26;;;;;;;;;55.00;45.00;;;;;;;;4920169;28;45264;-75
2023/01/26 03:56:23;;;;;;;;;58.00;43.00;;;;;;;;4920164;28;45351;-75
2023/01/26 03:58:49;;;;;;;;;50.75;38.75;;;;;;;;4918736;28;46388;-75
2023/01/26 04:01:20;;;;;;;;;43.25;36.25;;;;;;;;4920184;28;45764;-75
2023/01/26 04:09:17;;;;;;;;;49.50;41.00;;;;;;;;4920145;28;45769;-75
2023/01/26 04:11:42;;;;;;;;;48.25;37.75;;;;;;;;4919817;28;45330;-74
2023/01/26 04:22:23;;;;;;;;;45.50;39.75;;;;;;;;4921161;28;45299;-74
2023/01/26 04:24:48;;;;;;;;;48.00;40.00;;;;;;;;4921112;28;45279;-75
2023/01/26 04:27:14;;;;;;;;;52.25;42.75;;;;;;;;4921473;28;45383;-74
2023/01/26 04:29:39;;;;;;;;;50.50;40.25;;;;;;;;4919340;28;45591;-74
2023/01/26 04:32:04;;;;;;;;;55.50;39.50;;;;;;;;4918336;28;45443;-74
2023/01/26 04:34:29;;;;;;;;;47.25;40.75;;;;;;;;4919802;28;45501;-73
2023/01/26 04:36:54;;;;;;;;;44.00;39.25;;;;;;;;4919861;28;45362;-75
2023/01/26 04:39:20;;;;;;;;;47.75;39.25;;;;;;;;4918295;28;45858;-75
2023/01/26 04:41:45;;;;;;;;;52.25;39.75;;;;;;;;4919458;28;45378;-74
2023/01/26 04:44:10;;;;;;;;;54.75;41.00;;;;;;;;4919781;28;45466;-74
2023/01/26 04:46:35;;;;;;;;;55.00;41.00;;;;;;;;4919591;28;45514;-74
2023/01/26 04:49:01;;;;;;;;;38.50;36.00;;;;;;;;4919425;28;45991;-74
2023/01/26 04:51:27;;;;;;;;;50.75;43.00;;;;;;;;4919261;28;45300;-75
2023/01/26 04:53:52;;;;;;;;;43.25;37.50;;;;;;;;4919194;28;45361;-74
2023/01/26 04:56:21;;;;;;;;;51.50;41.25;;;;;;;;4919421;28;45371;-74
2023/01/26 04:58:46;;;;;;;;;48.50;38.25;;;;;;;;4919391;28;45265;-74
2023/01/26 05:01:11;;;;;;;;;49.00;40.00;;;;;;;;4919242;28;45509;-74
2023/01/26 05:03:36;;;;;;;;;44.00;39.50;;;;;;;;4919253;28;45275;-73
2023/01/26 05:06:01;;;;;;;;;56.00;41.50;;;;;;;;4919119;28;45244;-74
2023/01/26 05:08:27;;;;;;;;;38.75;36.75;;;;;;;;4917806;28;47157;-74
2023/01/26 05:10:52;;;;;;;;;48.25;36.50;;;;;;;;4901420;28;45746;-75
2023/01/26 05:13:17;;;;;;;;;45.25;38.50;;;;;;;;4899713;28;45300;-75
2023/01/26 05:15:42;;;;;;;;;46.50;38.50;;;;;;;;4899315;28;45256;-75
2023/01/26 05:18:08;;;;;;;;;40.75;30.75;;;;;;;;4899935;28;45488;-74
2023/01/26 05:20:34;;;;;;;;;44.00;35.75;;;;;;;;4899960;28;45553;-75
2023/01/26 05:22:59;;;;;;;;;60.75;45.25;;;;;;;;4899675;28;45364;-74
2023/01/26 05:25:24;;;;;;;;;56.25;45.75;;;;;;;;4905833;28;45536;-74
2023/01/26 05:27:50;;;;;;;;;54.25;41.50;;;;;;;;4918498;28;45464;-75
2023/01/26 05:30:15;;;;;;;;;62.00;48.00;;;;;;;;4918683;28;45386;-74
2023/01/26 05:32:40;;;;;;;;;55.00;44.00;;;;;;;;4919009;28;45386;-75
2023/01/26 05:35:06;;;;;;;;;58.00;45.25;;;;;;;;4918853;28;45738;-74
2023/01/26 05:37:32;;;;;;;;;58.75;42.25;;;;;;;;4918380;28;45349;-75
2023/01/26 05:39:57;;;;;;;;;60.00;44.50;;;;;;;;4917500;28;45697;-75
2023/01/26 05:42:23;;;;;;;;;55.75;44.75;;;;;;;;4918850;28;45276;-74
2023/01/26 05:44:48;;;;;;;;;57.25;47.00;;;;;;;;4918776;28;45365;-75
2023/01/26 05:47:13;;;;;;;;;61.00;49.25;;;;;;;;4918681;28;45435;-74
2023/01/26 05:49:41;;;;;;;;;59.25;48.00;;;;;;;;4918471;28;45346;-74
2023/01/26 05:52:08;;;;;;;;;63.75;48.75;;;;;;;;4918100;28;45454;-74
2023/01/26 05:54:33;;;;;;;;;57.50;46.00;;;;;;;;4910265;28;45423;-75
2023/01/26 05:56:58;;;;;;;;;58.50;44.50;;;;;;;;4894140;29;45378;-74
2023/01/26 05:59:23;;;;;;;;;60.00;45.00;;;;;;;;4896609;29;45375;-74
2023/01/26 06:01:49;;;;;;;;;60.00;45.00;;;;;;;;4888548;28;45647;-74
2023/01/26 06:04:14;;;;;;;;;58.00;45.00;;;;;;;;4880443;29;45279;-75
2023/01/26 06:06:39;;;;;;;;;61.25;48.00;;;;;;;;4880327;29;45386;-75
2023/01/26 06:09:04;;;;;;;;;59.00;44.25;;;;;;;;4885234;29;45384;-75
2023/01/26 06:11:30;;;;;;;;;65.50;49.00;;;;;;;;4885517;29;45312;-75
2023/01/26 06:13:55;;;;;;;;;62.75;44.75;;;;;;;;4880350;29;45498;-75
2023/01/26 06:16:21;;;;;;;;;54.00;45.75;;;;;;;;4879982;29;46145;-74
2023/01/26 06:18:47;;;;;;;;;56.50;44.75;;;;;;;;4880265;29;45335;-75
2023/01/26 06:21:12;;;;;;;;;55.00;40.75;;;;;;;;4880206;29;45353;-75
2023/01/26 06:23:38;;;;;;;;;57.75;46.50;;;;;;;;4880083;29;45300;-74
2023/01/26 06:26:05;;;;;;;;;47.25;41.75;;;;;;;;4901213;28;45680;-75
2023/01/26 06:28:30;;;;;;;;;49.00;37.00;;;;;;;;4882692;28;45256;-74
2023/01/26 06:30:59;;;;;;;;;50.00;40.50;;;;;;;;4879880;29;45272;-74
2023/01/26 06:33:24;;;;;;;;;51.50;44.00;;;;;;;;4880391;29;45541;-75
2023/01/26 06:35:49;;;;;;;;;54.75;44.00;;;;;;;;4879602;29;45616;-74
2023/01/26 06:38:14;;;;;;;;;41.00;36.25;;;;;;;;4879816;29;45374;-74
2023/01/26 06:40:40;;;;;;;;;54.50;39.75;;;;;;;;4890598;28;45469;-75
2023/01/26 06:43:05;;;;;;;;;53.00;42.25;;;;;;;;4886248;28;45443;-75
2023/01/26 06:45:31;;;;;;;;;54.25;43.50;;;;;;;;4879591;29;45492;-75
2023/01/26 06:47:56;;;;;;;;;52.50;43.25;;;;;;;;4879858;29;45355;-74
2023/01/26 06:50:24;;;;;;;;;49.25;42.25;;;;;;;;4879156;29;45435;-74
2023/01/26 06:52:57;;;;;;;;;47.00;41.25;;;;;;;;4904615;28;45377;-75
2023/01/26 06:55:27;;;;;;;;;50.00;41.75;;;;;;;;4917490;28;46335;-74
2023/01/26 06:57:52;;;;;;;;;47.00;38.50;;;;;;;;4917392;28;45291;-74
2023/01/26 07:00:18;;;;;;;;;57.25;43.00;;;;;;;;4917683;28;45308;-75
2023/01/26 07:02:43;;;;;;;;;46.25;40.25;;;;;;;;4910722;28;45573;-75
2023/01/26 07:05:08;;;;;;;;;54.75;41.75;;;;;;;;4898066;28;45537;-75
2023/01/26 07:07:33;;;;;;;;;50.75;41.25;;;;;;;;4898297;29;45374;-75
2023/01/26 07:09:59;;;;;;;;;53.75;39.75;;;;;;;;4898545;28;45284;-75
2023/01/26 07:12:24;;;;;;;;;52.75;43.25;;;;;;;;4897198;29;45625;-74
2023/01/26 07:14:50;;;;;;;;;54.25;43.25;;;;;;;;4898011;29;45500;-74
2023/01/26 07:17:16;;;;;;;;;56.50;43.50;;;;;;;;4898508;28;45589;-74
2023/01/26 07:19:41;;;;;;;;;46.25;40.25;;;;;;;;4898115;28;45325;-75
2023/01/26 07:22:06;;;;;;;;;56.50;45.50;;;;;;;;4898577;28;45386;-77
2023/01/26 07:24:31;;;;;;;;;57.50;44.50;;;;;;;;4881537;29;47400;-76
2023/01/26 07:26:57;;;;;;;;;55.25;45.25;;;;;;;;4896794;29;45443;-76
2023/01/26 07:29:23;;;;;;;;;62.75;50.50;;;;;;;;4898467;29;45401;-75
2023/01/26 07:31:48;;;;;;;;;52.00;43.50;;;;;;;;4898295;29;45481;-77
2023/01/26 07:34:13;;;;;;;;;62.00;48.75;;;;;;;;4898093;29;46912;-75
2023/01/26 07:36:39;;;;;;;;;51.00;43.25;;;;;;;;4898795;28;45489;-76
2023/01/26 07:39:05;;;;;;;;;72.50;52.75;;;;;;;;4901322;28;45443;-76
2023/01/26 07:41:30;;;;;;;;;61.75;45.00;;;;;;;;4901494;28;45317;-75
2023/01/26 07:43:55;;;;;;;;;61.00;48.00;;;;;;;;4897316;29;45160;-76
2023/01/26 07:46:21;;;;;;;;;60.00;49.00;;;;;;;;4901380;29;45921;-77
2023/01/26 07:48:46;;;;;;;;;57.50;44.50;;;;;;;;4901319;28;45306;-76
2023/01/26 07:51:11;;;;;;;;;52.75;42.00;;;;;;;;4900789;28;45414;-76
2023/01/26 07:53:38;;;;;;;;;55.25;43.50;;;;;;;;4919953;28;45414;-75
2023/01/26 07:56:14;;;;;;;;;50.75;43.00;;;;;;;;4906278;28;45450;-75
2023/01/26 07:58:40;;;;;;;;;55.00;43.50;;;;;;;;4901595;29;45366;-77
2023/01/26 08:01:05;;;;;;;;;60.25;46.50;;;;;;;;4900638;28;45414;-78
2023/01/26 08:03:30;;;;;;;;;55.75;42.50;;;;;;;;4900517;29;46067;-78
2023/01/26 08:05:55;;;;;;;;;53.25;42.00;;;;;;;;4895391;29;45559;-78
2023/01/26 08:08:21;;;;;;;;;52.25;43.75;;;;;;;;4891809;29;45410;-78
2023/01/26 08:10:46;;;;;;;;;58.25;45.00;;;;;;;;4900968;28;45526;-78
2023/01/26 08:13:11;;;;;;;;;57.75;46.75;;;;;;;;4900754;28;46335;-79
2023/01/26 08:15:36;;;;;;;;;55.25;43.25;;;;;;;;4899609;29;45493;-78
2023/01/26 08:18:03;;;;;;;;;60.50;46.25;;;;;;;;4900745;28;45497;-78
2023/01/26 08:20:28;;;;;;;;;60.25;43.00;;;;;;;;4900881;28;45506;-78
2023/01/26 08:22:53;;;;;;;;;53.00;43.75;;;;;;;;4900584;28;46918;-77
2023/01/26 08:25:19;;;;;;;;;51.25;43.50;;;;;;;;4900954;28;45374;-78
2023/01/26 08:27:44;;;;;;;;;54.75;43.00;;;;;;;;4900788;28;45514;-77
2023/01/26 08:30:09;;;;;;;;;45.25;35.75;;;;;;;;4900621;28;45340;-78
2023/01/26 08:32:35;;;;;;;;;49.75;39.50;;;;;;;;4900431;28;45347;-77
2023/01/26 08:35:00;;;;;;;;;52.75;42.00;;;;;;;;4900626;28;45373;-78
2023/01/26 08:37:25;;;;;;;;;55.75;46.25;;;;;;;;4900691;28;45386;-77
2023/01/26 08:39:50;;;;;;;;;54.50;42.75;;;;;;;;4900552;28;45355;-78
2023/01/26 08:42:15;;;;;;;;;62.25;47.50;;;;;;;;4900341;28;46127;-78
2023/01/26 08:44:41;;;;;;;;;57.50;42.00;;;;;;;;4899401;28;45510;-78
2023/01/26 08:47:06;;;;;;;;;61.00;48.75;;;;;;;;4900351;28;45431;-78
2023/01/26 08:49:31;;;;;;;;;52.25;40.25;;;;;;;;4899817;28;45398;-78
2023/01/26 08:51:56;;;;;;;;;55.25;45.50;;;;;;;;4906011;28;45405;-79
2023/01/26 08:54:22;;;;;;;;;47.75;36.75;;;;;;;;4919394;28;45436;-77
2023/01/26 08:56:47;;;;;;;;;42.00;36.50;;;;;;;;4918103;28;45343;-77
2023/01/26 08:59:12;;;;;;;;;49.25;39.75;;;;;;;;4919540;28;45307;-77
2023/01/26 09:01:37;;;;;;;;;38.75;35.00;;;;;;;;4919179;28;45421;-79
2023/01/26 09:04:03;;;;;;;;;49.00;42.00;;;;;;;;4919425;28;45372;-79
2023/01/26 09:06:29;;;;;;;;;49.75;41.50;;;;;;;;4919305;28;45292;-79
2023/01/26 09:08:54;;;;;;;;;50.00;40.25;;;;;;;;4919335;28;45382;-79
2023/01/26 09:11:19;;;;;;;;;49.75;41.00;;;;;;;;4917627;28;46995;-80
2023/01/26 09:13:51;;;;;;;;;54.00;42.00;;;;;;;;4919087;28;45223;-77
2023/01/26 09:16:18;;;;;;;;;52.00;42.75;;;;;;;;4919080;28;45314;-80
2023/01/26 09:18:43;;;;;;;;;54.75;42.00;;;;;;;;4919098;28;45465;-79
2023/01/26 09:21:09;;;;;;;;;41.25;38.00;;;;;;;;4918844;28;45350;-80
2023/01/26 09:23:34;;;;;;;;;57.50;43.00;;;;;;;;4918971;28;45443;-78
2023/01/26 09:26:00;;;;;;;;;48.50;41.00;;;;;;;;4919048;28;45517;-79
2023/01/26 09:28:25;;;;;;;;;56.25;40.75;;;;;;;;4918554;28;45397;-79
2023/01/26 09:30:50;;;;;;;;;54.00;44.00;;;;;;;;4918331;28;46054;-78
2023/01/26 09:33:15;;;;;;;;;58.25;45.25;;;;;;;;4917418;28;45474;-78
2023/01/26 09:35:40;;;;;;;;;58.50;44.75;;;;;;;;4918700;28;45350;-79
2023/01/26 09:38:06;;;;;;;;;51.75;41.75;;;;;;;;4918829;28;45544;-80
2023/01/26 09:40:49;;;;;;;;;49.75;38.50;;;;;;;;4901396;28;46498;-79
2023/01/26 09:43:33;;;;;;;;;49.25;40.50;;;;;;;;4918311;28;45386;-80
2023/01/26 09:46:03;;;;;;;;;56.75;41.75;;;;;;;;4918898;28;45393;-80
2023/01/26 09:48:46;;;;;;;;;56.00;42.25;;;;;;;;4918561;28;45378;-79
2023/01/26 09:51:11;;;;;;;;;51.00;43.75;;;;;;;;4917308;28;45417;-80
2023/01/26 09:53:53;;;;;;;;;57.75;43.75;;;;;;;;4916970;28;45391;-80
2023/01/26 09:56:19;;;;;;;;;49.75;40.75;;;;;;;;4918664;28;45292;-80
2023/01/26 09:59:13;;;;;;;;;54.25;43.25;;;;;;;;4918010;28;45749;-80
2023/01/26 10:01:41;;;;;;;;;54.50;43.00;;;;;;;;4913400;28;47493;-79
2023/01/26 10:04:21;;;;;;;;;51.75;40.50;;;;;;;;4918167;28;45312;-79
2023/01/26 10:06:46;;;;;;;;;50.25;40.25;;;;;;;;4918387;28;45331;-79
2023/01/26 10:09:14;;;;;;;;;44.75;39.25;;;;;;;;4918593;28;45139;-80
2023/01/26 10:11:42;;;;;;;;;54.50;42.50;;;;;;;;4917877;28;45350;-79
2023/01/26 10:14:13;;;;;;;;;44.25;37.50;;;;;;;;4918062;28;45375;-80
2023/01/26 10:16:39;;;;;;;;;55.25;42.00;;;;;;;;4918363;28;45226;-79
2023/01/26 10:19:09;;;;;;;;;41.00;38.00;;;;;;;;4918137;28;45382;-80
2023/01/26 10:21:38;;;;;;;;;50.25;40.75;;;;;;;;4916726;28;46662;-79
2023/01/26 10:24:04;;;;;;;;;48.75;38.25;;;;;;;;4918112;28;45355;-79
2023/01/26 10:26:31;;;;;;;;;51.50;41.00;;;;;;;;4916696;28;45498;-79
2023/01/26 10:28:57;;;;;;;;;55.00;44.00;;;;;;;;4918000;28;45406;-79
2023/01/26 10:31:25;;;;;;;;;55.75;43.25;;;;;;;;4917795;28;45826;-79
2023/01/26 10:33:53;;;;;;;;;42.50;37.00;;;;;;;;4917976;28;45363;-79
2023/01/26 10:36:19;;;;;;;;;47.50;39.00;;;;;;;;4917911;28;45355;-79
2023/01/26 10:38:44;;;;;;;;;51.25;37.50;;;;;;;;4917942;28;45392;-79
2023/01/26 10:41:13;;;;;;;;;53.25;40.25;;;;;;;;4916280;28;47912;-79
2023/01/26 10:43:42;;;;;;;;;40.00;36.75;;;;;;;;4917739;28;45390;-79
2023/01/26 10:46:22;;;;;;;;;52.25;41.25;;;;;;;;4916698;28;45327;-80
2023/01/26 10:48:51;;;;;;;;;50.50;41.25;;;;;;;;4917855;28;45428;-79
2023/01/26 10:51:28;;;;;;;;;35.25;33.75;;;;;;;;4917873;28;46357;-80
2023/01/26 10:54:11;;;;;;;;;43.50;37.50;;;;;;;;4917730;28;45385;-79
2023/01/26 10:56:42;;;;;;;;;38.50;36.00;;;;;;;;4918069;28;45295;-80
2023/01/26 10:59:07;;;;;;;;;50.00;40.25;;;;;;;;4923086;28;45459;-79
2023/01/26 11:01:49;;;;;;;;;54.75;42.50;;;;;;;;4924128;28;45366;-80
2023/01/26 11:04:15;;;;;;;;;48.75;41.00;;;;;;;;4920188;28;45380;-80
2023/01/26 11:06:40;;;;;;;;;44.25;39.00;;;;;;;;4917944;28;46135;-80
2023/01/26 11:09:08;;;;;;;;;52.25;42.25;;;;;;;;4917282;28;45624;-79
2023/01/26 11:11:33;;;;;;;;;41.75;37.00;;;;;;;;4916777;28;45436;-79
2023/01/26 11:14:13;;;;;;;;;46.00;39.25;;;;;;;;4919853;28;45365;-79
2023/01/26 11:16:40;;;;;;;;;46.50;40.00;;;;;;;;4920111;28;45311;-79
2023/01/26 11:19:06;;;;;;;;;48.00;39.75;;;;;;;;4920233;28;45541;-79
2023/01/26 11:21:31;;;;;;;;;45.50;39.75;;;;;;;;4919993;28;45862;-80
2023/01/26 11:24:03;;;;;;;;;50.50;41.25;;;;;;;;4920196;28;45337;-79
2023/01/26 11:26:31;;;;;;;;;51.50;41.75;;;;;;;;4920228;28;45345;-79
2023/01/26 11:29:03;;;;;;;;;47.50;40.75;;;;;;;;4920556;28;45429;-78
2023/01/26 11:31:33;;;;;;;;;45.50;38.50;;;;;;;;4920267;28;46281;-79
2023/01/26 11:33:58;;;;;;;;;47.00;39.00;;;;;;;;4920673;28;45356;-80
2023/01/26 11:36:46;;;;;;;;;29.25;20.75;;;;;;;;4920801;28;45382;-79
2023/01/26 11:39:17;;;;;;;;;42.50;38.00;;;;;;;;4920416;28;45579;-79
2023/01/26 11:41:49;;;;;;;;;47.00;40.00;;;;;;;;4918943;28;46477;-79
2023/01/26 11:44:27;;;;;;;;;52.50;40.00;;;;;;;;4920300;28;45461;-80
2023/01/26 11:47:08;;;;;;;;;41.50;36.00;;;;;;;;4920614;28;45348;-79
2023/01/26 11:49:33;;;;;;;;;51.25;38.75;;;;;;;;4920215;28;45366;-79
2023/01/26 11:52:21;;;;;;;;;43.00;38.50;;;;;;;;4920224;28;45763;-80
2023/01/26 11:55:05;;;;;;;;;50.00;37.75;;;;;;;;4919585;28;45312;-79
2023/01/26 11:57:30;;;;;;;;;39.50;35.75;;;;;;;;4920096;28;45314;-80
2023/01/26 12:00:34;;;;;;;;;31.50;29.25;;;;;;;;4920343;28;45448;-80
2023/01/26 12:03:04;;;;;;;;;29.00;26.75;;;;;;;;4898394;29;46570;-80
2023/01/26 12:05:41;;;;;;;;;27.00;23.25;;;;;;;;4898532;29;45262;-79
2023/01/26 12:08:13;;;;;;;;;25.75;23.50;;;;;;;;4898856;29;45327;-80
2023/01/26 12:10:42;;;;;;;;;32.50;27.75;;;;;;;;4898716;29;45623;-79
2023/01/26 12:13:16;;;;;;;;;28.25;24.00;;;;;;;;4898627;29;46257;-80
2023/01/26 12:15:45;;;;;;;;;22.75;21.25;;;;;;;;4898705;29;45348;-78
2023/01/26 12:18:14;;;;;;;;;26.00;23.75;;;;;;;;4898601;29;45407;-78
2023/01/26 12:20:39;;;;;;;;;24.50;19.25;;;;;;;;4898591;29;45325;-79
2023/01/26 12:23:04;;;;;;;;;24.00;20.00;;;;;;;;4898013;29;46415;-79
2023/01/26 12:25:30;;;;;;;;;27.25;21.50;;;;;;;;4897164;29;45358;-79
2023/01/26 12:28:00;;;;;;;;;10.75;8.25;;;;;;;;4882451;29;45504;-79
2023/01/26 12:30:26;;;;;;;;;16.75;12.75;;;;;;;;4898108;29;45427;-78
2023/01/26 12:32:51;;;;;;;;;26.50;22.00;;;;;;;;4900680;28;45471;-79
2023/01/26 12:35:26;;;;;;;;;20.75;18.50;;;;;;;;4919415;28;45366;-79
2023/01/26 12:38:00;;;;;;;;;18.00;17.75;;;;;;;;4919533;28;45490;-78
2023/01/26 12:40:28;;;;;;;;;15.75;15.25;;;;;;;;4919318;28;45608;-78
2023/01/26 12:43:13;;;;;;;;;19.50;16.50;;;;;;;;4919088;28;45576;-78
2023/01/26 12:45:40;;;;;;;;;18.25;17.50;;;;;;;;4918505;28;45394;-79
2023/01/26 12:48:18;;;;;;;;;21.25;19.25;;;;;;;;4919352;28;45310;-80
2023/01/26 12:50:52;;;;;;;;;21.25;19.25;;;;;;;;4918717;28;45466;-79
2023/01/26 12:53:29;;;;;;;;;16.25;15.25;;;;;;;;4917778;28;48372;-80
2023/01/26 12:56:15;;;;;;;;;19.25;18.75;;;;;;;;4918030;28;45671;-79
2023/01/26 12:58:43;;;;;;;;;20.50;16.75;;;;;;;;4919128;28;45436;-81
2023/01/26 13:01:10;;;;;;;;;18.00;18.00;;;;;;;;4919203;28;45589;-80
2023/01/26 13:03:38;;;;;;;;;21.75;16.75;;;;;;;;4918919;28;46268;-79
2023/01/26 13:06:09;;;;;;;;;17.50;15.75;;;;;;;;4918338;28;45329;-80
2023/01/26 13:08:34;;;;;;;;;16.25;13.50;;;;;;;;4919371;28;45273;-79
2023/01/26 13:11:05;;;;;;;;;25.75;24.25;;;;;;;;4918959;28;45220;-79
2023/01/26 13:13:32;;;;;;;;;25.25;23.00;;;;;;;;4918944;28;45464;-79
2023/01/26 13:16:20;;;;;;;;;21.00;19.00;;;;;;;;4918990;28;45609;-79
2023/01/26 13:18:49;;;;;;;;;23.00;19.00;;;;;;;;4916018;28;45338;-79
2023/01/26 13:21:27;;;;;;;;;17.25;15.00;;;;;;;;4918691;28;45602;-81
2023/01/26 13:23:52;;;;;;;;;15.50;14.75;;;;;;;;4918639;28;46843;-79
2023/01/26 13:26:40;;;;;;;;;16.75;14.50;;;;;;;;4917880;28;45434;-80
2023/01/26 13:29:24;;;;;;;;;17.50;15.50;;;;;;;;4918683;28;45428;-80
2023/01/26 13:31:49;;;;;;;;;18.25;14.00;;;;;;;;4918332;28;45570;-80
2023/01/26 13:34:18;;;;;;;;;14.50;12.75;;;;;;;;4918471;28;46059;-80
2023/01/26 13:36:46;;;;;;;;;18.00;16.75;;;;;;;;4918141;28;45261;-79
2023/01/26 13:39:23;;;;;;;;;18.75;15.50;;;;;;;;4918912;28;45376;-80
2023/01/26 13:41:48;;;;;;;;;16.50;16.50;;;;;;;;4918596;28;45443;-80
2023/01/26 13:44:19;;;;;;;;;19.25;14.00;;;;;;;;4917937;28;46328;-81
2023/01/26 13:46:47;;;;;;;;;15.75;15.50;;;;;;;;4918554;28;45326;-80
2023/01/26 13:49:35;;;;;;;;;18.75;18.00;;;;;;;;4918629;28;45415;-81
2023/01/26 13:52:01;;;;;;;;;16.50;14.50;;;;;;;;4917246;28;45545;-80
2023/01/26 13:54:26;;;;;;;;;17.50;16.50;;;;;;;;4917096;28;47454;-80
2023/01/26 13:57:02;;;;;;;;;15.75;15.75;;;;;;;;4918364;28;45275;-80
2023/01/26 13:59:28;;;;;;;;;16.00;15.50;;;;;;;;4918537;28;45252;-80
2023/01/26 14:01:54;;;;;;;;;14.25;14.25;;;;;;;;4918277;28;45425;-80
2023/01/26 14:04:23;;;;;;;;;17.25;16.75;;;;;;;;4918141;28;45386;-80
2023/01/26 14:06:49;;;;;;;;;16.50;16.50;;;;;;;;4917961;28;45325;-79
2023/01/26 14:09:15;;;;;;;;;20.00;18.50;;;;;;;;4918201;28;45265;-80
2023/01/26 14:11:41;;;;;;;;;23.25;21.50;;;;;;;;4918582;28;45471;-79
2023/01/26 14:14:23;;;;;;;;;21.25;19.50;;;;;;;;4918191;28;45394;-79
2023/01/26 14:16:48;;;;;;;;;21.25;16.00;;;;;;;;4918796;28;45374;-79
2023/01/26 14:19:18;;;;;;;;;23.50;17.25;;;;;;;;4922760;28;45395;-80
2023/01/26 14:22:04;;;;;;;;;21.25;20.50;;;;;;;;4924092;28;45361;-79
2023/01/26 14:24:33;;;;;;;;;12.00;11.50;;;;;;;;4923438;28;45420;-81
2023/01/26 14:26:59;;;;;;;;;23.00;19.25;;;;;;;;4923322;28;45478;-80
2023/01/26 14:29:26;;;;;;;;;21.00;19.25;;;;;;;;4918192;28;45429;-81
2023/01/26 14:31:52;;;;;;;;;24.50;17.00;;;;;;;;4916780;28;45267;-80
2023/01/26 14:34:19;;;;;;;;;22.75;18.00;;;;;;;;4917549;28;45419;-81
2023/01/26 14:36:44;;;;;;;;;23.00;22.00;;;;;;;;4916699;28;45298;-80
2023/01/26 14:39:16;;;;;;;;;17.00;15.00;;;;;;;;4918123;28;45374;-80
2023/01/26 14:41:42;;;;;;;;;21.50;17.75;;;;;;;;4917741;28;45304;-80
2023/01/26 14:44:08;;;;;;;;;14.50;12.00;;;;;;;;4917495;28;46501;-80
2023/01/26 14:46:35;;;;;;;;;18.50;15.75;;;;;;;;4917587;28;45262;-80
2023/01/26 14:49:06;;;;;;;;;20.50;18.50;;;;;;;;4916507;28;45328;-80
2023/01/26 14:51:31;;;;;;;;;24.75;18.50;;;;;;;;4917261;28;45434;-81
2023/01/26 14:54:02;;;;;;;;;20.75;16.75;;;;;;;;4917514;28;46155;-81
2023/01/26 14:56:32;;;;;;;;;8.25;8.25;;;;;;;;4916117;28;45691;-81
2023/01/26 14:58:57;;;;;;;;;16.75;14.75;;;;;;;;4917903;28;45379;-80
2023/01/26 15:01:24;;;;;;;;;20.50;16.25;;;;;;;;4917310;28;45272;-81
2023/01/26 15:03:55;;;;;;;;;18.25;15.50;;;;;;;;4917140;28;45325;-80